^^
Station Historical Data
Daily Summary for November 6, 2017 Units:  Both    English   Metric
« Previous Day
Next Day »
Daily Weekly Monthly Yearly Custom
  High: Low: Average:
Temperature: TemperatureF °F /  -17.8 °C 63.1 °F /  17.3 °C 77.7 °F /  25.4 °C
Dew Point: DewpointF °F /  -17.8 °C 35.4 °F /  1.9 °C 42.4 °F /  5.8 °C
Humidity: Humidity% 13% 31%
Wind Speed: WindSpeedMPHmph /  0km/h - 1.7mph /  2.7km/h
Wind Gust: WindSpeedGustMPHmph /  0km/h - -
Wind- - SSE
Pressure: PressureIn in /  0 hPa 29.61 in /  1002.6 hPa -
Precipitation: 0.00 in /  0 mm    
Historical Graphs
 
 
Tabular Data for November 6, 2017
Time Temperature Dew Point Pressure Wind Wind Speed Wind Gust Humidity Rainfall Rate (Hourly) solar Conditions
TemperatureF °F /  -17.8 °C DewpointF °F /  -17.8 °C PressureInin /  0hPa Calm     Humidity% HourlyPrecipInin /  0mm SolarRadiationWatts/m^2 W/m2 Conditions
00:08 68.9 °F /  20.5 °C 42.3 °F /  5.7 °C 29.78in /  1008.4hPa Calm     38% 0.00in /  0mm 0.0 W/m2
00:13 68.7 °F /  20.4 °C 42.8 °F /  6 °C 29.78in /  1008.4hPa Calm   2.0mph /  3.2km/h 39% 0.00in /  0mm 0.0 W/m2
00:18 68.7 °F /  20.4 °C 42.8 °F /  6 °C 29.78in /  1008.4hPa Calm   2.0mph /  3.2km/h 39% 0.00in /  0mm 0.0 W/m2
00:23 68.5 °F /  20.3 °C 43.3 °F /  6.3 °C 29.78in /  1008.4hPa Calm   3.0mph /  4.8km/h 40% 0.00in /  0mm 0.0 W/m2
00:34 68.4 °F /  20.2 °C 43.7 °F /  6.5 °C 29.78in /  1008.4hPa ENE 0.9mph /  1.4km/h 3.0mph /  4.8km/h 41% 0.00in /  0mm 0.0 W/m2
00:39 68.2 °F /  20.1 °C 43.5 °F /  6.4 °C 29.78in /  1008.4hPa Calm   3.0mph /  4.8km/h 41% 0.00in /  0mm 0.0 W/m2
00:49 68.0 °F /  20 °C 43.3 °F /  6.3 °C 29.77in /  1008hPa East 0.9mph /  1.4km/h 2.0mph /  3.2km/h 41% 0.00in /  0mm 0.0 W/m2
00:55 67.8 °F /  19.9 °C 43.3 °F /  6.3 °C 29.77in /  1008hPa Calm   3.0mph /  4.8km/h 41% 0.00in /  0mm 0.0 W/m2
01:00 67.6 °F /  19.8 °C 43.2 °F /  6.2 °C 29.77in /  1008hPa Calm     41% 0.00in /  0mm 0.0 W/m2
01:05 67.6 °F /  19.8 °C 43.7 °F /  6.5 °C 29.77in /  1008hPa Calm     42% 0.00in /  0mm 0.0 W/m2
01:11 67.5 °F /  19.7 °C 43.5 °F /  6.4 °C 29.77in /  1008hPa Calm   2.0mph /  3.2km/h 42% 0.00in /  0mm 0.0 W/m2
01:16 67.3 °F /  19.6 °C 44.6 °F /  7 °C 29.77in /  1008hPa Calm     44% 0.00in /  0mm 0.0 W/m2
01:19 67.3 °F /  19.6 °C 44.1 °F /  6.7 °C 29.77in /  1008hPa Calm     43% 0.00in /  0mm 0.0 W/m2
01:24 66.9 °F /  19.4 °C 44.2 °F /  6.8 °C 29.77in /  1008hPa Calm     44% 0.00in /  0mm 0.0 W/m2
01:29 66.7 °F /  19.3 °C 44.1 °F /  6.7 °C 29.76in /  1007.7hPa Calm     44% 0.00in /  0mm 0.0 W/m2
01:34 66.6 °F /  19.2 °C 44.1 °F /  6.7 °C 29.76in /  1007.7hPa Calm     44% 0.00in /  0mm 0.0 W/m2
01:40 66.4 °F /  19.1 °C 44.4 °F /  6.9 °C 29.76in /  1007.7hPa Calm     45% 0.00in /  0mm 0.0 W/m2
01:45 66.0 °F /  18.9 °C 45.1 °F /  7.3 °C 29.76in /  1007.7hPa Calm   1.0mph /  1.6km/h 47% 0.00in /  0mm 0.0 W/m2
01:50 65.8 °F /  18.8 °C 45.0 °F /  7.2 °C 29.76in /  1007.7hPa Calm   1.0mph /  1.6km/h 47% 0.00in /  0mm 0.0 W/m2
01:56 65.7 °F /  18.7 °C 45.5 °F /  7.5 °C 29.76in /  1007.7hPa Calm     48% 0.00in /  0mm 0.0 W/m2
02:01 65.5 °F /  18.6 °C 45.3 °F /  7.4 °C 29.76in /  1007.7hPa Calm     48% 0.00in /  0mm 0.0 W/m2
02:06 65.1 °F /  18.4 °C 44.4 °F /  6.9 °C 29.76in /  1007.7hPa Calm     47% 0.00in /  0mm 0.0 W/m2
02:12 64.9 °F /  18.3 °C 44.2 °F /  6.8 °C 29.76in /  1007.7hPa Calm     47% 0.00in /  0mm 0.0 W/m2
02:17 64.8 °F /  18.2 °C 44.6 °F /  7 °C 29.76in /  1007.7hPa Calm     48% 0.00in /  0mm 0.0 W/m2
02:22 64.8 °F /  18.2 °C 44.1 °F /  6.7 °C 29.75in /  1007.3hPa Calm   2.0mph /  3.2km/h 47% 0.00in /  0mm 0.0 W/m2
02:28 64.6 °F /  18.1 °C 44.4 °F /  6.9 °C 29.75in /  1007.3hPa ESE 2.0mph /  3.2km/h 2.0mph /  3.2km/h 48% 0.00in /  0mm 0.0 W/m2
02:34 64.6 °F /  18.1 °C 43.3 °F /  6.3 °C 29.75in /  1007.3hPa Calm   1.0mph /  1.6km/h 46% 0.00in /  0mm 0.0 W/m2
02:38 64.6 °F /  18.1 °C 43.3 °F /  6.3 °C 29.75in /  1007.3hPa ESE 0.9mph /  1.4km/h 1.0mph /  1.6km/h 46% 0.00in /  0mm 0.0 W/m2
02:44 64.6 °F /  18.1 °C 42.8 °F /  6 °C 29.75in /  1007.3hPa Calm     45% 0.00in /  0mm 0.0 W/m2
02:49 64.6 °F /  18.1 °C 42.8 °F /  6 °C 29.75in /  1007.3hPa Calm   1.0mph /  1.6km/h 45% 0.00in /  0mm 0.0 W/m2
02:54 64.6 °F /  18.1 °C 42.8 °F /  6 °C 29.75in /  1007.3hPa ENE 0.9mph /  1.4km/h 4.0mph /  6.4km/h 45% 0.00in /  0mm 0.0 W/m2
03:00 64.8 °F /  18.2 °C 42.3 °F /  5.7 °C 29.75in /  1007.3hPa NE 2.9mph /  4.7km/h 3.0mph /  4.8km/h 44% 0.00in /  0mm 0.0 W/m2
03:10 65.5 °F /  18.6 °C 41.7 °F /  5.4 °C 29.75in /  1007.3hPa Calm   3.0mph /  4.8km/h 42% 0.00in /  0mm 0.0 W/m2
03:16 65.7 °F /  18.7 °C 42.6 °F /  5.9 °C 29.75in /  1007.3hPa NE 2.0mph /  3.2km/h 2.0mph /  3.2km/h 43% 0.00in /  0mm 0.0 W/m2
03:21 65.7 °F /  18.7 °C 41.9 °F /  5.5 °C 29.75in /  1007.3hPa Calm   1.0mph /  1.6km/h 42% 0.00in /  0mm 0.0 W/m2
03:26 65.7 °F /  18.7 °C 42.6 °F /  5.9 °C 29.75in /  1007.3hPa NE 0.9mph /  1.4km/h 1.0mph /  1.6km/h 43% 0.00in /  0mm 0.0 W/m2
03:32 65.5 °F /  18.6 °C 42.4 °F /  5.8 °C 29.75in /  1007.3hPa Calm   1.0mph /  1.6km/h 43% 0.00in /  0mm 0.0 W/m2
03:37 65.3 °F /  18.5 °C 43.3 °F /  6.3 °C 29.75in /  1007.3hPa Calm   1.0mph /  1.6km/h 45% 0.00in /  0mm 0.0 W/m2
03:42 65.1 °F /  18.4 °C 43.3 °F /  6.3 °C 29.74in /  1007hPa Calm   1.0mph /  1.6km/h 45% 0.00in /  0mm 0.0 W/m2
03:48 64.9 °F /  18.3 °C 43.2 °F /  6.2 °C 29.75in /  1007.3hPa Calm   1.0mph /  1.6km/h 45% 0.00in /  0mm 0.0 W/m2
03:53 64.8 °F /  18.2 °C 43.5 °F /  6.4 °C 29.74in /  1007hPa Calm   1.0mph /  1.6km/h 46% 0.00in /  0mm 0.0 W/m2
03:58 64.8 °F /  18.2 °C 43.5 °F /  6.4 °C 29.74in /  1007hPa Calm   1.0mph /  1.6km/h 46% 0.00in /  0mm 0.0 W/m2
04:03 64.6 °F /  18.1 °C 43.3 °F /  6.3 °C 29.74in /  1007hPa Calm   1.0mph /  1.6km/h 46% 0.00in /  0mm 0.0 W/m2
04:08 64.6 °F /  18.1 °C 43.9 °F /  6.6 °C 29.74in /  1007hPa Calm     47% 0.00in /  0mm 0.0 W/m2
04:13 64.6 °F /  18.1 °C 44.4 °F /  6.9 °C 29.75in /  1007.3hPa Calm   1.0mph /  1.6km/h 48% 0.00in /  0mm 0.0 W/m2
04:18 64.4 °F /  18 °C 43.7 °F /  6.5 °C 29.74in /  1007hPa Calm   1.0mph /  1.6km/h 47% 0.00in /  0mm 0.0 W/m2
04:23 64.4 °F /  18 °C 44.2 °F /  6.8 °C 29.74in /  1007hPa Calm   1.0mph /  1.6km/h 48% 0.00in /  0mm 0.0 W/m2
04:29 64.4 °F /  18 °C 44.8 °F /  7.1 °C 29.74in /  1007hPa Calm   1.0mph /  1.6km/h 49% 0.00in /  0mm 0.0 W/m2
04:34 64.6 °F /  18.1 °C 45.0 °F /  7.2 °C 29.74in /  1007hPa Calm   3.0mph /  4.8km/h 49% 0.00in /  0mm 0.0 W/m2
04:39 64.6 °F /  18.1 °C 45.0 °F /  7.2 °C 29.74in /  1007hPa Calm   2.0mph /  3.2km/h 49% 0.00in /  0mm 0.0 W/m2
04:45 64.6 °F /  18.1 °C 45.0 °F /  7.2 °C 29.74in /  1007hPa Calm   1.0mph /  1.6km/h 49% 0.00in /  0mm 0.0 W/m2
04:50 64.6 °F /  18.1 °C 45.0 °F /  7.2 °C 29.74in /  1007hPa Calm   1.0mph /  1.6km/h 49% 0.00in /  0mm 0.0 W/m2
04:55 64.6 °F /  18.1 °C 44.4 °F /  6.9 °C 29.74in /  1007hPa Calm     48% 0.00in /  0mm 0.0 W/m2
05:00 64.6 °F /  18.1 °C 44.4 °F /  6.9 °C 29.74in /  1007hPa Calm   1.0mph /  1.6km/h 48% 0.00in /  0mm 0.0 W/m2
05:05 64.6 °F /  18.1 °C 44.4 °F /  6.9 °C 29.74in /  1007hPa Calm   1.0mph /  1.6km/h 48% 0.00in /  0mm 0.0 W/m2
05:14 64.6 °F /  18.1 °C 44.4 °F /  6.9 °C 29.74in /  1007hPa Calm   1.0mph /  1.6km/h 48% 0.00in /  0mm 0.0 W/m2
05:20 64.6 °F /  18.1 °C 44.4 °F /  6.9 °C 29.74in /  1007hPa Calm     48% 0.00in /  0mm 0.0 W/m2
05:24 64.6 °F /  18.1 °C 44.4 °F /  6.9 °C 29.74in /  1007hPa Calm     48% 0.00in /  0mm 0.0 W/m2
05:25 64.4 °F /  18 °C 44.8 °F /  7.1 °C 29.74in /  1007hPa Calm     49% 0.00in /  0mm 0.0 W/m2
05:31 64.2 °F /  17.9 °C 44.6 °F /  7 °C 29.74in /  1007hPa Calm   1.0mph /  1.6km/h 49% 0.00in /  0mm 0.0 W/m2
05:34 64.2 °F /  17.9 °C 44.6 °F /  7 °C 29.74in /  1007hPa Calm   3.0mph /  4.8km/h 49% 0.00in /  0mm 0.0 W/m2
05:44 64.0 °F /  17.8 °C 45.0 °F /  7.2 °C 29.74in /  1007hPa Calm   1.0mph /  1.6km/h 50% 0.00in /  0mm 0.0 W/m2
05:49 63.9 °F /  17.7 °C 44.8 °F /  7.1 °C 29.74in /  1007hPa Calm   1.0mph /  1.6km/h 50% 0.00in /  0mm 0.0 W/m2
05:54 63.9 °F /  17.7 °C 44.8 °F /  7.1 °C 29.74in /  1007hPa Calm   1.0mph /  1.6km/h 50% 0.00in /  0mm 0.0 W/m2
06:00 63.7 °F /  17.6 °C 45.1 °F /  7.3 °C 29.74in /  1007hPa Calm   1.0mph /  1.6km/h 51% 0.00in /  0mm 0.0 W/m2
06:03 63.7 °F /  17.6 °C 45.1 °F /  7.3 °C 29.74in /  1007hPa Calm   1.0mph /  1.6km/h 51% 0.00in /  0mm 0.0 W/m2
06:08 63.5 °F /  17.5 °C 45.5 °F /  7.5 °C 29.74in /  1007hPa ESE 0.9mph /  1.4km/h 1.0mph /  1.6km/h 52% 0.00in /  0mm 0.0 W/m2
06:13 63.3 °F /  17.4 °C 45.3 °F /  7.4 °C 29.74in /  1007hPa Calm   2.0mph /  3.2km/h 52% 0.00in /  0mm 5.0 W/m2
06:18 63.3 °F /  17.4 °C 45.0 °F /  7.2 °C 29.74in /  1007hPa East 4.9mph /  7.9km/h 5.0mph /  8km/h 51% 0.00in /  0mm 7.0 W/m2
06:24 63.3 °F /  17.4 °C 44.4 °F /  6.9 °C 29.74in /  1007hPa ENE 0.9mph /  1.4km/h 2.0mph /  3.2km/h 50% 0.00in /  0mm 9.0 W/m2
06:29 63.3 °F /  17.4 °C 45.3 °F /  7.4 °C 29.75in /  1007.3hPa Calm     52% 0.00in /  0mm 11.0 W/m2
06:34 63.3 °F /  17.4 °C 45.3 °F /  7.4 °C 29.75in /  1007.3hPa Calm     52% 0.00in /  0mm 14.0 W/m2
06:40 63.3 °F /  17.4 °C 45.3 °F /  7.4 °C 29.75in /  1007.3hPa Calm     52% 0.00in /  0mm 21.0 W/m2
06:45 63.1 °F /  17.3 °C 45.1 °F /  7.3 °C 29.75in /  1007.3hPa ESE 0.9mph /  1.4km/h 1.0mph /  1.6km/h 52% 0.00in /  0mm 26.0 W/m2
06:50 63.1 °F /  17.3 °C 44.8 °F /  7.1 °C 29.75in /  1007.3hPa East 2.0mph /  3.2km/h 3.0mph /  4.8km/h 51% 0.00in /  0mm 28.0 W/m2
06:55 63.3 °F /  17.4 °C 45.0 °F /  7.2 °C 29.75in /  1007.3hPa ENE 0.9mph /  1.4km/h 3.0mph /  4.8km/h 51% 0.00in /  0mm 30.0 W/m2
07:00 63.7 °F /  17.6 °C 45.7 °F /  7.6 °C 29.75in /  1007.3hPa ESE 2.0mph /  3.2km/h 2.0mph /  3.2km/h 52% 0.00in /  0mm 32.0 W/m2
07:06 63.9 °F /  17.7 °C 45.9 °F /  7.7 °C 29.76in /  1007.7hPa NE 0.9mph /  1.4km/h 3.0mph /  4.8km/h 52% 0.00in /  0mm 33.0 W/m2
07:11 64.2 °F /  17.9 °C 46.2 °F /  7.9 °C 29.76in /  1007.7hPa ESE 0.9mph /  1.4km/h 1.0mph /  1.6km/h 52% 0.00in /  0mm 35.0 W/m2
07:16 64.8 °F /  18.2 °C 46.2 °F /  7.9 °C 29.76in /  1007.7hPa ENE 0.9mph /  1.4km/h 3.0mph /  4.8km/h 51% 0.00in /  0mm 39.0 W/m2
07:21 65.3 °F /  18.5 °C 46.2 °F /  7.9 °C 29.76in /  1007.7hPa Calm   3.0mph /  4.8km/h 50% 0.00in /  0mm 40.0 W/m2
07:26 66.0 °F /  18.9 °C 46.8 °F /  8.2 °C 29.76in /  1007.7hPa ENE 2.0mph /  3.2km/h 3.0mph /  4.8km/h 50% 0.00in /  0mm 44.0 W/m2
07:31 66.6 °F /  19.2 °C 47.3 °F /  8.5 °C 29.77in /  1008hPa Calm   1.0mph /  1.6km/h 50% 0.00in /  0mm 47.0 W/m2
07:36 67.3 °F /  19.6 °C 48.0 °F /  8.9 °C 29.76in /  1007.7hPa Calm   1.0mph /  1.6km/h 50% 0.00in /  0mm 53.0 W/m2
07:41 68.2 °F /  20.1 °C 47.1 °F /  8.4 °C 29.77in /  1008hPa ESE 0.9mph /  1.4km/h 3.0mph /  4.8km/h 47% 0.00in /  0mm 58.0 W/m2
07:46 68.9 °F /  20.5 °C 47.3 °F /  8.5 °C 29.77in /  1008hPa ESE 2.0mph /  3.2km/h 3.0mph /  4.8km/h 46% 0.00in /  0mm 223.0 W/m2
07:51 69.6 °F /  20.9 °C 46.8 °F /  8.2 °C 29.77in /  1008hPa Calm   2.0mph /  3.2km/h 44% 0.00in /  0mm 359.0 W/m2
07:56 70.3 °F /  21.3 °C 46.2 °F /  7.9 °C 29.77in /  1008hPa SE 2.9mph /  4.7km/h 3.0mph /  4.8km/h 42% 0.00in /  0mm 381.0 W/m2
08:02 71.2 °F /  21.8 °C 46.4 °F /  8 °C 29.77in /  1008hPa ENE 2.0mph /  3.2km/h 3.0mph /  4.8km/h 41% 0.00in /  0mm 399.0 W/m2
08:08 72.3 °F /  22.4 °C 43.2 °F /  6.2 °C 29.77in /  1008hPa Calm   3.0mph /  4.8km/h 35% 0.00in /  0mm 427.0 W/m2
08:13 73.6 °F /  23.1 °C 43.5 °F /  6.4 °C 29.77in /  1008hPa SE 2.0mph /  3.2km/h 3.0mph /  4.8km/h 34% 0.00in /  0mm 448.0 W/m2
08:19 74.7 °F /  23.7 °C 42.1 °F /  5.6 °C 29.77in /  1008hPa Calm   2.0mph /  3.2km/h 31% 0.00in /  0mm 475.0 W/m2
08:24 75.9 °F /  24.4 °C 42.3 °F /  5.7 °C 29.77in /  1008hPa ENE 2.0mph /  3.2km/h 3.0mph /  4.8km/h 30% 0.00in /  0mm 494.0 W/m2
08:29 77.2 °F /  25.1 °C 42.4 °F /  5.8 °C 29.77in /  1008hPa Calm   2.0mph /  3.2km/h 29% 0.00in /  0mm 510.0 W/m2
08:34 78.3 °F /  25.7 °C 42.4 °F /  5.8 °C 29.77in /  1008hPa Calm   3.0mph /  4.8km/h 28% 0.00in /  0mm 529.0 W/m2
08:39 79.2 °F /  26.2 °C 44.2 °F /  6.8 °C 29.77in /  1008hPa NNE 2.9mph /  4.7km/h 5.0mph /  8km/h 29% 0.00in /  0mm 552.0 W/m2
08:44 80.1 °F /  26.7 °C 42.1 °F /  5.6 °C 29.77in /  1008hPa Calm   1.0mph /  1.6km/h 26% 0.00in /  0mm 568.0 W/m2
08:49 80.8 °F /  27.1 °C 41.7 °F /  5.4 °C 29.77in /  1008hPa NNE 2.9mph /  4.7km/h 5.0mph /  8km/h 25% 0.00in /  0mm 589.0 W/m2
08:54 81.1 °F /  27.3 °C 41.9 °F /  5.5 °C 29.77in /  1008hPa NW 2.0mph /  3.2km/h 4.0mph /  6.4km/h 25% 0.00in /  0mm 606.0 W/m2
08:59 81.7 °F /  27.6 °C 43.5 °F /  6.4 °C 29.77in /  1008hPa NW 2.0mph /  3.2km/h 2.0mph /  3.2km/h 26% 0.00in /  0mm 624.0 W/m2
09:04 82.0 °F /  27.8 °C 42.8 °F /  6 °C 29.77in /  1008hPa Calm   2.0mph /  3.2km/h 25% 0.00in /  0mm 642.0 W/m2
09:10 82.2 °F /  27.9 °C 43.0 °F /  6.1 °C 29.77in /  1008hPa Calm   1.0mph /  1.6km/h 25% 0.00in /  0mm 661.0 W/m2
09:15 82.8 °F /  28.2 °C 43.3 °F /  6.3 °C 29.77in /  1008hPa Calm   3.0mph /  4.8km/h 25% 0.00in /  0mm 679.0 W/m2
09:20 82.9 °F /  28.3 °C 42.4 °F /  5.8 °C 29.77in /  1008hPa ENE 0.9mph /  1.4km/h 3.0mph /  4.8km/h 24% 0.00in /  0mm 694.0 W/m2
09:25 83.7 °F /  28.7 °C 43.0 °F /  6.1 °C 29.77in /  1008hPa SE 2.0mph /  3.2km/h 3.0mph /  4.8km/h 24% 0.00in /  0mm 714.0 W/m2
09:30 84.0 °F /  28.9 °C 43.3 °F /  6.3 °C 29.78in /  1008.4hPa Calm   3.0mph /  4.8km/h 24% 0.00in /  0mm 729.0 W/m2
09:35 84.4 °F /  29.1 °C 41.4 °F /  5.2 °C 29.78in /  1008.4hPa Calm   6.0mph /  9.7km/h 22% 0.00in /  0mm 745.0 W/m2
09:40 84.6 °F /  29.2 °C 41.5 °F /  5.3 °C 29.78in /  1008.4hPa NNW 0.9mph /  1.4km/h 1.0mph /  1.6km/h 22% 0.00in /  0mm 761.0 W/m2
09:45 84.7 °F /  29.3 °C 41.7 °F /  5.4 °C 29.78in /  1008.4hPa ENE 2.0mph /  3.2km/h 4.0mph /  6.4km/h 22% 0.00in /  0mm 773.0 W/m2
09:50 84.7 °F /  29.3 °C 42.8 °F /  6 °C 29.78in /  1008.4hPa NNW 0.9mph /  1.4km/h 2.0mph /  3.2km/h 23% 0.00in /  0mm 788.0 W/m2
09:55 85.3 °F /  29.6 °C 43.3 °F /  6.3 °C 29.77in /  1008hPa WNW 0.9mph /  1.4km/h 5.0mph /  8km/h 23% 0.00in /  0mm 800.0 W/m2
10:01 85.5 °F /  29.7 °C 42.3 °F /  5.7 °C 29.77in /  1008hPa West 2.0mph /  3.2km/h 6.0mph /  9.7km/h 22% 0.00in /  0mm 814.0 W/m2
10:06 85.3 °F /  29.6 °C 42.1 °F /  5.6 °C 29.77in /  1008hPa Calm   7.0mph /  11.3km/h 22% 0.00in /  0mm 830.0 W/m2
10:11 85.1 °F /  29.5 °C 41.9 °F /  5.5 °C 29.77in /  1008hPa WNW 2.9mph /  4.7km/h 6.0mph /  9.7km/h 22% 0.00in /  0mm 844.0 W/m2
10:16 85.3 °F /  29.6 °C 41.0 °F /  5 °C 29.77in /  1008hPa NNW 0.9mph /  1.4km/h 6.0mph /  9.7km/h 21% 0.00in /  0mm 858.0 W/m2
10:21 85.5 °F /  29.7 °C 41.0 °F /  5 °C 29.76in /  1007.7hPa ENE 4.9mph /  7.9km/h 5.0mph /  8km/h 21% 0.00in /  0mm 870.0 W/m2
10:26 85.8 °F /  29.9 °C 41.4 °F /  5.2 °C 29.76in /  1007.7hPa NNW 4.9mph /  7.9km/h 6.0mph /  9.7km/h 21% 0.00in /  0mm 882.0 W/m2
10:31 86.4 °F /  30.2 °C 41.9 °F /  5.5 °C 29.76in /  1007.7hPa NNW 0.9mph /  1.4km/h 6.0mph /  9.7km/h 21% 0.00in /  0mm 891.0 W/m2
10:36 87.1 °F /  30.6 °C 41.2 °F /  5.1 °C 29.76in /  1007.7hPa NNW 2.9mph /  4.7km/h 7.0mph /  11.3km/h 20% 0.00in /  0mm 898.0 W/m2
10:41 87.3 °F /  30.7 °C 39.9 °F /  4.4 °C 29.75in /  1007.3hPa ENE 2.9mph /  4.7km/h 6.0mph /  9.7km/h 19% 0.00in /  0mm 912.0 W/m2
10:46 87.3 °F /  30.7 °C 41.4 °F /  5.2 °C 29.75in /  1007.3hPa East 4.0mph /  6.4km/h 8.0mph /  12.9km/h 20% 0.00in /  0mm 926.0 W/m2
10:51 87.6 °F /  30.9 °C 41.5 °F /  5.3 °C 29.75in /  1007.3hPa Calm   2.0mph /  3.2km/h 20% 0.00in /  0mm 935.0 W/m2
10:56 88.0 °F /  31.1 °C 41.9 °F /  5.5 °C 29.75in /  1007.3hPa WNW 2.0mph /  3.2km/h 7.0mph /  11.3km/h 20% 0.00in /  0mm 939.0 W/m2
11:01 88.2 °F /  31.2 °C 42.1 °F /  5.6 °C 29.75in /  1007.3hPa NW 2.9mph /  4.7km/h 4.0mph /  6.4km/h 20% 0.00in /  0mm 949.0 W/m2
11:06 88.5 °F /  31.4 °C 41.0 °F /  5 °C 29.74in /  1007hPa Calm   5.0mph /  8km/h 19% 0.00in /  0mm 967.0 W/m2
11:11 88.7 °F /  31.5 °C 41.2 °F /  5.1 °C 29.74in /  1007hPa NNE 4.0mph /  6.4km/h 6.0mph /  9.7km/h 19% 0.00in /  0mm 981.0 W/m2
11:17 89.1 °F /  31.7 °C 40.1 °F /  4.5 °C 29.74in /  1007hPa West 0.9mph /  1.4km/h 5.0mph /  8km/h 18% 0.00in /  0mm 988.0 W/m2
11:23 89.1 °F /  31.7 °C 40.1 °F /  4.5 °C 29.74in /  1007hPa NNE 6.0mph /  9.7km/h 9.0mph /  14.5km/h 18% 0.00in /  0mm 998.0 W/m2
11:28 89.4 °F /  31.9 °C 40.3 °F /  4.6 °C 29.74in /  1007hPa SE 2.9mph /  4.7km/h 4.0mph /  6.4km/h 18% 0.00in /  0mm 1009.0 W/m2
11:33 89.8 °F /  32.1 °C 39.2 °F /  4 °C 29.73in /  1006.7hPa SSW 0.9mph /  1.4km/h 7.0mph /  11.3km/h 17% 0.00in /  0mm 1028.0 W/m2
11:38 89.2 °F /  31.8 °C 38.7 °F /  3.7 °C 29.73in /  1006.7hPa SW 2.9mph /  4.7km/h 3.0mph /  4.8km/h 17% 0.00in /  0mm 1039.0 W/m2
11:43 88.9 °F /  31.6 °C 38.5 °F /  3.6 °C 29.73in /  1006.7hPa NW 0.9mph /  1.4km/h 3.0mph /  4.8km/h 17% 0.00in /  0mm 1067.0 W/m2
11:48 89.4 °F /  31.9 °C 38.8 °F /  3.8 °C 29.73in /  1006.7hPa NE 0.9mph /  1.4km/h 7.0mph /  11.3km/h 17% 0.00in /  0mm 1056.0 W/m2
11:53 90.1 °F /  32.3 °C 39.4 °F /  4.1 °C 29.73in /  1006.7hPa Calm   2.0mph /  3.2km/h 17% 0.00in /  0mm 1095.0 W/m2
11:58 90.7 °F /  32.6 °C 39.9 °F /  4.4 °C 29.73in /  1006.7hPa East 2.9mph /  4.7km/h 10.0mph /  16.1km/h 17% 0.00in /  0mm 1102.0 W/m2
12:03 91.4 °F /  33 °C 38.8 °F /  3.8 °C 29.73in /  1006.7hPa ENE 2.0mph /  3.2km/h 4.0mph /  6.4km/h 16% 0.00in /  0mm 1095.0 W/m2
12:08 91.8 °F /  33.2 °C 39.2 °F /  4 °C 29.73in /  1006.7hPa SE 6.9mph /  11.1km/h 7.0mph /  11.3km/h 16% 0.00in /  0mm 1100.0 W/m2
12:14 91.2 °F /  32.9 °C 38.8 °F /  3.8 °C 29.72in /  1006.3hPa Calm   5.0mph /  8km/h 16% 0.00in /  0mm 183.0 W/m2
12:19 90.3 °F /  32.4 °C 39.6 °F /  4.2 °C 29.72in /  1006.3hPa SE 4.0mph /  6.4km/h 4.0mph /  6.4km/h 17% 0.00in /  0mm 199.0 W/m2
12:24 89.8 °F /  32.1 °C 39.2 °F /  4 °C 29.72in /  1006.3hPa SSE 2.0mph /  3.2km/h 4.0mph /  6.4km/h 17% 0.00in /  0mm 188.0 W/m2
12:29 89.1 °F /  31.7 °C 38.7 °F /  3.7 °C 29.72in /  1006.3hPa NNW 2.9mph /  4.7km/h 3.0mph /  4.8km/h 17% 0.00in /  0mm 1136.0 W/m2
12:34 88.9 °F /  31.6 °C 39.9 °F /  4.4 °C 29.72in /  1006.3hPa NNW 0.9mph /  1.4km/h 4.0mph /  6.4km/h 18% 0.00in /  0mm 896.0 W/m2
12:39 88.9 °F /  31.6 °C 38.5 °F /  3.6 °C 29.71in /  1006hPa North 6.0mph /  9.7km/h 7.0mph /  11.3km/h 17% 0.00in /  0mm 211.0 W/m2
12:44 88.3 °F /  31.3 °C 37.9 °F /  3.3 °C 29.72in /  1006.3hPa NNW 0.9mph /  1.4km/h 4.0mph /  6.4km/h 17% 0.00in /  0mm 313.0 W/m2
12:50 88.3 °F /  31.3 °C 37.9 °F /  3.3 °C 29.71in /  1006hPa NNW 2.9mph /  4.7km/h 6.0mph /  9.7km/h 17% 0.00in /  0mm 313.0 W/m2
12:55 89.1 °F /  31.7 °C 38.7 °F /  3.7 °C 29.71in /  1006hPa East 6.0mph /  9.7km/h 10.0mph /  16.1km/h 17% 0.00in /  0mm 1167.0 W/m2
13:00 89.4 °F /  31.9 °C 38.8 °F /  3.8 °C 29.71in /  1006hPa ENE 0.9mph /  1.4km/h 7.0mph /  11.3km/h 17% 0.00in /  0mm 199.0 W/m2
13:05 89.6 °F /  32 °C 39.0 °F /  3.9 °C 29.71in /  1006hPa NE 2.9mph /  4.7km/h 14.0mph /  22.5km/h 17% 0.00in /  0mm 1139.0 W/m2
13:10 90.3 °F /  32.4 °C 38.1 °F /  3.4 °C 29.71in /  1006hPa WNW 2.0mph /  3.2km/h 5.0mph /  8km/h 16% 0.00in /  0mm 1121.0 W/m2
13:15 91.2 °F /  32.9 °C 38.8 °F /  3.8 °C 29.70in /  1005.6hPa SW 2.9mph /  4.7km/h 3.0mph /  4.8km/h 16% 0.00in /  0mm 1118.0 W/m2
13:20 91.8 °F /  33.2 °C 39.2 °F /  4 °C 29.70in /  1005.6hPa Calm   2.0mph /  3.2km/h 16% 0.00in /  0mm 1120.0 W/m2
13:25 91.9 °F /  33.3 °C 39.4 °F /  4.1 °C 29.70in /  1005.6hPa Calm   7.0mph /  11.3km/h 16% 0.00in /  0mm 251.0 W/m2
13:30 91.6 °F /  33.1 °C 39.0 °F /  3.9 °C 29.70in /  1005.6hPa NE 4.0mph /  6.4km/h 5.0mph /  8km/h 16% 0.00in /  0mm 155.0 W/m2
13:36 90.9 °F /  32.7 °C 38.5 °F /  3.6 °C 29.70in /  1005.6hPa NE 2.0mph /  3.2km/h 7.0mph /  11.3km/h 16% 0.00in /  0mm 178.0 W/m2
13:41 90.7 °F /  32.6 °C 39.9 °F /  4.4 °C 29.69in /  1005.3hPa ENE 4.0mph /  6.4km/h 7.0mph /  11.3km/h 17% 0.00in /  0mm 1093.0 W/m2
13:47 91.2 °F /  32.9 °C 38.8 °F /  3.8 °C 29.69in /  1005.3hPa ENE 2.9mph /  4.7km/h 12.0mph /  19.3km/h 16% 0.00in /  0mm 1030.0 W/m2
13:52 91.8 °F /  33.2 °C 37.6 °F /  3.1 °C 29.69in /  1005.3hPa ENE 2.0mph /  3.2km/h 9.0mph /  14.5km/h 15% 0.00in /  0mm 1021.0 W/m2
13:57 92.7 °F /  33.7 °C 38.3 °F /  3.5 °C 29.69in /  1005.3hPa Calm   4.0mph /  6.4km/h 15% 0.00in /  0mm 1025.0 W/m2
14:02 93.2 °F /  34 °C 38.7 °F /  3.7 °C 29.68in /  1005hPa NNE 4.0mph /  6.4km/h 10.0mph /  16.1km/h 15% 0.00in /  0mm 1046.0 W/m2
14:07 93.4 °F /  34.1 °C 38.8 °F /  3.8 °C 29.68in /  1005hPa NE 4.0mph /  6.4km/h 7.0mph /  11.3km/h 15% 0.00in /  0mm 1067.0 W/m2
14:12 92.7 °F /  33.7 °C 38.3 °F /  3.5 °C 29.68in /  1005hPa SE 0.9mph /  1.4km/h 5.0mph /  8km/h 15% 0.00in /  0mm 1076.0 W/m2
14:17 92.7 °F /  33.7 °C 38.3 °F /  3.5 °C 29.68in /  1005hPa WNW 0.9mph /  1.4km/h 5.0mph /  8km/h 15% 0.00in /  0mm 1053.0 W/m2
14:23 93.2 °F /  34 °C 36.9 °F /  2.7 °C 29.67in /  1004.6hPa NNW 2.0mph /  3.2km/h 9.0mph /  14.5km/h 14% 0.00in /  0mm 956.0 W/m2
14:28 93.6 °F /  34.2 °C 37.2 °F /  2.9 °C 29.67in /  1004.6hPa ESE 2.0mph /  3.2km/h 3.0mph /  4.8km/h 14% 0.00in /  0mm 969.0 W/m2
14:33 93.4 °F /  34.1 °C 38.8 °F /  3.8 °C 29.67in /  1004.6hPa SE 0.9mph /  1.4km/h 3.0mph /  4.8km/h 15% 0.00in /  0mm 967.0 W/m2
14:38 93.6 °F /  34.2 °C 39.0 °F /  3.9 °C 29.66in /  1004.3hPa SE 6.0mph /  9.7km/h 9.0mph /  14.5km/h 15% 0.00in /  0mm 947.0 W/m2
14:43 93.6 °F /  34.2 °C 37.2 °F /  2.9 °C 29.66in /  1004.3hPa ESE 2.9mph /  4.7km/h 8.0mph /  12.9km/h 14% 0.00in /  0mm 925.0 W/m2
14:48 93.6 °F /  34.2 °C 39.0 °F /  3.9 °C 29.66in /  1004.3hPa South 2.9mph /  4.7km/h 3.0mph /  4.8km/h 15% 0.00in /  0mm 911.0 W/m2
14:53 93.7 °F /  34.3 °C 37.4 °F /  3 °C 29.66in /  1004.3hPa Calm   5.0mph /  8km/h 14% 0.00in /  0mm 902.0 W/m2
14:58 93.9 °F /  34.4 °C 37.6 °F /  3.1 °C 29.65in /  1003.9hPa SW 2.0mph /  3.2km/h 5.0mph /  8km/h 14% 0.00in /  0mm 905.0 W/m2
15:03 93.4 °F /  34.1 °C 37.0 °F /  2.8 °C 29.65in /  1003.9hPa SE 8.1mph /  13km/h 10.0mph /  16.1km/h 14% 0.00in /  0mm 851.0 W/m2
15:09 93.6 °F /  34.2 °C 37.2 °F /  2.9 °C 29.65in /  1003.9hPa SE 4.0mph /  6.4km/h 10.0mph /  16.1km/h 14% 0.00in /  0mm 763.0 W/m2
15:14 93.9 °F /  34.4 °C 37.6 °F /  3.1 °C 29.65in /  1003.9hPa NNE 6.9mph /  11.1km/h 8.0mph /  12.9km/h 14% 0.00in /  0mm 721.0 W/m2
15:24 93.9 °F /  34.4 °C 37.6 °F /  3.1 °C 29.64in /  1003.6hPa Calm   3.0mph /  4.8km/h 14% 0.00in /  0mm 160.0 W/m2
15:29 93.7 °F /  34.3 °C 37.4 °F /  3 °C 29.64in /  1003.6hPa East 0.9mph /  1.4km/h 4.0mph /  6.4km/h 14% 0.00in /  0mm 784.0 W/m2
15:39 93.9 °F /  34.4 °C 39.2 °F /  4 °C 29.63in /  1003.3hPa East 2.0mph /  3.2km/h 2.0mph /  3.2km/h 15% 0.00in /  0mm 747.0 W/m2
15:44 94.3 °F /  34.6 °C 37.8 °F /  3.2 °C 29.63in /  1003.3hPa Calm   7.0mph /  11.3km/h 14% 0.00in /  0mm 710.0 W/m2
15:50 94.5 °F /  34.7 °C 36.0 °F /  2.2 °C 29.63in /  1003.3hPa ENE 2.9mph /  4.7km/h 6.0mph /  9.7km/h 13% 0.00in /  0mm 571.0 W/m2
15:55 94.3 °F /  34.6 °C 37.8 °F /  3.2 °C 29.63in /  1003.3hPa North 2.9mph /  4.7km/h 7.0mph /  11.3km/h 14% 0.00in /  0mm 554.0 W/m2
16:00 93.9 °F /  34.4 °C 37.6 °F /  3.1 °C 29.63in /  1003.3hPa NNW 2.9mph /  4.7km/h 4.0mph /  6.4km/h 14% 0.00in /  0mm 524.0 W/m2
16:05 93.7 °F /  34.3 °C 35.4 °F /  1.9 °C 29.63in /  1003.3hPa North 0.9mph /  1.4km/h 3.0mph /  4.8km/h 13% 0.00in /  0mm 343.0 W/m2
16:10 93.4 °F /  34.1 °C 37.0 °F /  2.8 °C 29.64in /  1003.6hPa SSW 0.9mph /  1.4km/h 8.0mph /  12.9km/h 14% 0.00in /  0mm 156.0 W/m2
16:15 91.4 °F /  33 °C 38.8 °F /  3.8 °C 29.63in /  1003.3hPa WNW 0.9mph /  1.4km/h 7.0mph /  11.3km/h 16% 0.00in /  0mm 691.0 W/m2
16:20 90.3 °F /  32.4 °C 41.0 °F /  5 °C 29.62in /  1002.9hPa SSE 4.0mph /  6.4km/h 4.0mph /  6.4km/h 18% 0.00in /  0mm 657.0 W/m2
16:27 90.9 °F /  32.7 °C 40.1 °F /  4.5 °C 29.62in /  1002.9hPa WSW 0.9mph /  1.4km/h 13.0mph /  20.9km/h 17% 0.00in /  0mm 640.0 W/m2
16:33 90.7 °F /  32.6 °C 39.9 °F /  4.4 °C 29.62in /  1002.9hPa South 6.9mph /  11.1km/h 12.0mph /  19.3km/h 17% 0.00in /  0mm 598.0 W/m2
16:39 90.3 °F /  32.4 °C 41.0 °F /  5 °C 29.62in /  1002.9hPa SE 2.9mph /  4.7km/h 10.0mph /  16.1km/h 18% 0.00in /  0mm 591.0 W/m2
16:45 90.1 °F /  32.3 °C 41.0 °F /  5 °C 29.62in /  1002.9hPa South 4.0mph /  6.4km/h 8.0mph /  12.9km/h 18% 0.00in /  0mm 589.0 W/m2
16:51 90.3 °F /  32.4 °C 39.6 °F /  4.2 °C 29.62in /  1002.9hPa South 6.0mph /  9.7km/h 10.0mph /  16.1km/h 17% 0.00in /  0mm 162.0 W/m2
16:55 89.8 °F /  32.1 °C 40.6 °F /  4.8 °C 29.61in /  1002.6hPa SW 2.9mph /  4.7km/h 8.0mph /  12.9km/h 18% 0.00in /  0mm 155.0 W/m2
16:56 89.4 °F /  31.9 °C 41.7 °F /  5.4 °C 29.61in /  1002.6hPa South 6.0mph /  9.7km/h 7.0mph /  11.3km/h 19% 0.00in /  0mm 153.0 W/m2
17:03 88.2 °F /  31.2 °C 40.6 °F /  4.8 °C 29.62in /  1002.9hPa SW 8.9mph /  14.3km/h 10.0mph /  16.1km/h 19% 0.00in /  0mm 169.0 W/m2
17:08 87.3 °F /  30.7 °C 39.9 °F /  4.4 °C 29.62in /  1002.9hPa South 4.0mph /  6.4km/h 8.0mph /  12.9km/h 19% 0.00in /  0mm 329.0 W/m2
17:13 87.3 °F /  30.7 °C 38.7 °F /  3.7 °C 29.62in /  1002.9hPa South 2.9mph /  4.7km/h 7.0mph /  11.3km/h 18% 0.00in /  0mm 156.0 W/m2
17:18 87.4 °F /  30.8 °C 40.1 °F /  4.5 °C 29.61in /  1002.6hPa South 2.9mph /  4.7km/h 9.0mph /  14.5km/h 19% 0.00in /  0mm 134.0 W/m2
17:24 87.3 °F /  30.7 °C 39.9 °F /  4.4 °C 29.61in /  1002.6hPa Calm   10.0mph /  16.1km/h 19% 0.00in /  0mm 158.0 W/m2
17:29 87.1 °F /  30.6 °C 39.7 °F /  4.3 °C 29.61in /  1002.6hPa Calm   6.0mph /  9.7km/h 19% 0.00in /  0mm 200.0 W/m2
17:34 87.1 °F /  30.6 °C 38.5 °F /  3.6 °C 29.61in /  1002.6hPa SSW 4.0mph /  6.4km/h 10.0mph /  16.1km/h 18% 0.00in /  0mm 93.0 W/m2
17:39 86.7 °F /  30.4 °C 38.1 °F /  3.4 °C 29.61in /  1002.6hPa WSW 2.0mph /  3.2km/h 7.0mph /  11.3km/h 18% 0.00in /  0mm 86.0 W/m2
17:44 86.4 °F /  30.2 °C 37.9 °F /  3.3 °C 29.61in /  1002.6hPa South 6.0mph /  9.7km/h 7.0mph /  11.3km/h 18% 0.00in /  0mm 98.0 W/m2
17:47 86.4 °F /  30.2 °C 37.9 °F /  3.3 °C 29.61in /  1002.6hPa SE 2.0mph /  3.2km/h 9.0mph /  14.5km/h 18% 0.00in /  0mm 104.0 W/m2
17:53 86.2 °F /  30.1 °C 37.8 °F /  3.2 °C 29.62in /  1002.9hPa SSW 2.9mph /  4.7km/h 6.0mph /  9.7km/h 18% 0.00in /  0mm 83.0 W/m2
17:58 86.0 °F /  30 °C 37.6 °F /  3.1 °C 29.62in /  1002.9hPa SSW 2.0mph /  3.2km/h 5.0mph /  8km/h 18% 0.00in /  0mm 79.0 W/m2
18:03 85.8 °F /  29.9 °C 37.4 °F /  3 °C 29.62in /  1002.9hPa ESE 4.9mph /  7.9km/h 5.0mph /  8km/h 18% 0.00in /  0mm 88.0 W/m2
18:08 85.8 °F /  29.9 °C 37.4 °F /  3 °C 29.62in /  1002.9hPa SSE 4.0mph /  6.4km/h 9.0mph /  14.5km/h 18% 0.00in /  0mm 77.0 W/m2
18:14 85.8 °F /  29.9 °C 37.4 °F /  3 °C 29.63in /  1003.3hPa South 8.1mph /  13km/h 13.0mph /  20.9km/h 18% 0.00in /  0mm 39.0 W/m2
18:19 85.6 °F /  29.8 °C 37.2 °F /  2.9 °C 29.63in /  1003.3hPa SE 2.0mph /  3.2km/h 9.0mph /  14.5km/h 18% 0.00in /  0mm 42.0 W/m2
18:24 85.3 °F /  29.6 °C 38.3 °F /  3.5 °C 29.64in /  1003.6hPa ESE 4.9mph /  7.9km/h 6.0mph /  9.7km/h 19% 0.00in /  0mm 39.0 W/m2
18:29 84.9 °F /  29.4 °C 39.4 °F /  4.1 °C 29.65in /  1003.9hPa ENE 2.9mph /  4.7km/h 4.0mph /  6.4km/h 20% 0.00in /  0mm 37.0 W/m2
18:34 84.7 °F /  29.3 °C 39.2 °F /  4 °C 29.65in /  1003.9hPa ESE 2.0mph /  3.2km/h 9.0mph /  14.5km/h 20% 0.00in /  0mm 21.0 W/m2
18:39 84.2 °F /  29 °C 38.8 °F /  3.8 °C 29.65in /  1003.9hPa ESE 2.9mph /  4.7km/h 3.0mph /  4.8km/h 20% 0.00in /  0mm 12.0 W/m2
18:44 83.7 °F /  28.7 °C 39.6 °F /  4.2 °C 29.66in /  1004.3hPa East 2.0mph /  3.2km/h 2.0mph /  3.2km/h 21% 0.00in /  0mm 7.0 W/m2
18:49 83.5 °F /  28.6 °C 40.6 °F /  4.8 °C 29.66in /  1004.3hPa Calm   3.0mph /  4.8km/h 22% 0.00in /  0mm 5.0 W/m2
18:54 83.3 °F /  28.5 °C 39.4 °F /  4.1 °C 29.66in /  1004.3hPa Calm     21% 0.00in /  0mm 0.0 W/m2
19:00 83.1 °F /  28.4 °C 40.3 °F /  4.6 °C 29.66in /  1004.3hPa Calm   1.0mph /  1.6km/h 22% 0.00in /  0mm 0.0 W/m2
19:06 82.8 °F /  28.2 °C 41.2 °F /  5.1 °C 29.67in /  1004.6hPa Calm   7.0mph /  11.3km/h 23% 0.00in /  0mm 0.0 W/m2
19:11 82.0 °F /  27.8 °C 42.8 °F /  6 °C 29.67in /  1004.6hPa WNW 13.0mph /  20.9km/h 14.0mph /  22.5km/h 25% 0.00in /  0mm 0.0 W/m2
19:16 80.4 °F /  26.9 °C 43.3 °F /  6.3 °C 29.67in /  1004.6hPa WNW 4.9mph /  7.9km/h 10.0mph /  16.1km/h 27% 0.00in /  0mm 0.0 W/m2
19:21 79.5 °F /  26.4 °C 43.5 °F /  6.4 °C 29.67in /  1004.6hPa NE 4.9mph /  7.9km/h 11.0mph /  17.7km/h 28% 0.00in /  0mm 0.0 W/m2
19:26 79.0 °F /  26.1 °C 44.1 °F /  6.7 °C 29.67in /  1004.6hPa NNW 4.0mph /  6.4km/h 9.0mph /  14.5km/h 29% 0.00in /  0mm 0.0 W/m2
19:31 78.6 °F /  25.9 °C 44.6 °F /  7 °C 29.67in /  1004.6hPa SW 2.9mph /  4.7km/h 3.0mph /  4.8km/h 30% 0.00in /  0mm 0.0 W/m2
19:36 78.4 °F /  25.8 °C 42.6 °F /  5.9 °C 29.67in /  1004.6hPa Calm   3.0mph /  4.8km/h 28% 0.00in /  0mm 0.0 W/m2
19:41 78.6 °F /  25.9 °C 43.7 °F /  6.5 °C 29.68in /  1005hPa West 4.9mph /  7.9km/h 5.0mph /  8km/h 29% 0.00in /  0mm 0.0 W/m2
19:46 78.4 °F /  25.8 °C 43.5 °F /  6.4 °C 29.68in /  1005hPa WNW 2.0mph /  3.2km/h 5.0mph /  8km/h 29% 0.00in /  0mm 0.0 W/m2
19:52 78.4 °F /  25.8 °C 43.5 °F /  6.4 °C 29.68in /  1005hPa WNW 2.0mph /  3.2km/h 8.0mph /  12.9km/h 29% 0.00in /  0mm 0.0 W/m2
19:57 78.4 °F /  25.8 °C 43.5 °F /  6.4 °C 29.68in /  1005hPa WNW 0.9mph /  1.4km/h 5.0mph /  8km/h 29% 0.00in /  0mm 0.0 W/m2
20:02 78.3 °F /  25.7 °C 43.3 °F /  6.3 °C 29.69in /  1005.3hPa Calm   5.0mph /  8km/h 29% 0.00in /  0mm 0.0 W/m2
20:07 78.3 °F /  25.7 °C 43.3 °F /  6.3 °C 29.69in /  1005.3hPa West 2.0mph /  3.2km/h 3.0mph /  4.8km/h 29% 0.00in /  0mm 0.0 W/m2
20:12 78.1 °F /  25.6 °C 44.1 °F /  6.7 °C 29.69in /  1005.3hPa WNW 0.9mph /  1.4km/h 2.0mph /  3.2km/h 30% 0.00in /  0mm 0.0 W/m2
20:17 77.7 °F /  25.4 °C 43.9 °F /  6.6 °C 29.70in /  1005.6hPa Calm   3.0mph /  4.8km/h 30% 0.00in /  0mm 0.0 W/m2
20:22 77.7 °F /  25.4 °C 43.9 °F /  6.6 °C 29.70in /  1005.6hPa Calm   1.0mph /  1.6km/h 30% 0.00in /  0mm 0.0 W/m2
20:27 77.5 °F /  25.3 °C 43.7 °F /  6.5 °C 29.70in /  1005.6hPa Calm   3.0mph /  4.8km/h 30% 0.00in /  0mm 0.0 W/m2
20:33 77.4 °F /  25.2 °C 43.5 °F /  6.4 °C 29.70in /  1005.6hPa Calm   5.0mph /  8km/h 30% 0.00in /  0mm 0.0 W/m2
20:39 77.2 °F /  25.1 °C 44.2 °F /  6.8 °C 29.70in /  1005.6hPa West 0.9mph /  1.4km/h 3.0mph /  4.8km/h 31% 0.00in /  0mm 0.0 W/m2
20:49 76.8 °F /  24.9 °C 43.9 °F /  6.6 °C 29.71in /  1006hPa West 2.0mph /  3.2km/h 2.0mph /  3.2km/h 31% 0.00in /  0mm 0.0 W/m2
20:54 76.6 °F /  24.8 °C 43.7 °F /  6.5 °C 29.71in /  1006hPa Calm   5.0mph /  8km/h 31% 0.00in /  0mm 0.0 W/m2
20:59 76.6 °F /  24.8 °C 44.6 °F /  7 °C 29.71in /  1006hPa Calm   1.0mph /  1.6km/h 32% 0.00in /  0mm 0.0 W/m2
21:04 76.5 °F /  24.7 °C 44.4 °F /  6.9 °C 29.71in /  1006hPa Calm   2.0mph /  3.2km/h 32% 0.00in /  0mm 0.0 W/m2
21:09 76.5 °F /  24.7 °C 44.4 °F /  6.9 °C 29.71in /  1006hPa Calm   1.0mph /  1.6km/h 32% 0.00in /  0mm 0.0 W/m2
21:14 76.3 °F /  24.6 °C 44.2 °F /  6.8 °C 29.71in /  1006hPa Calm     32% 0.00in /  0mm 0.0 W/m2
21:19 76.3 °F /  24.6 °C 45.1 °F /  7.3 °C 29.71in /  1006hPa Calm   2.0mph /  3.2km/h 33% 0.00in /  0mm 0.0 W/m2
21:25 76.1 °F /  24.5 °C 45.0 °F /  7.2 °C 29.71in /  1006hPa Calm   1.0mph /  1.6km/h 33% 0.00in /  0mm 0.0 W/m2
21:31 75.9 °F /  24.4 °C 44.8 °F /  7.1 °C 29.71in /  1006hPa Calm   1.0mph /  1.6km/h 33% 0.00in /  0mm 0.0 W/m2
21:36 75.9 °F /  24.4 °C 44.8 °F /  7.1 °C 29.71in /  1006hPa WSW 2.0mph /  3.2km/h 4.0mph /  6.4km/h 33% 0.00in /  0mm 0.0 W/m2
21:41 75.7 °F /  24.3 °C 44.6 °F /  7 °C 29.72in /  1006.3hPa Calm     33% 0.00in /  0mm 0.0 W/m2
21:46 75.7 °F /  24.3 °C 44.6 °F /  7 °C 29.73in /  1006.7hPa Calm     33% 0.00in /  0mm 0.0 W/m2
21:51 75.6 °F /  24.2 °C 44.4 °F /  6.9 °C 29.73in /  1006.7hPa Calm   2.0mph /  3.2km/h 33% 0.00in /  0mm 0.0 W/m2
21:56 75.6 °F /  24.2 °C 45.1 °F /  7.3 °C 29.73in /  1006.7hPa Calm   3.0mph /  4.8km/h 34% 0.00in /  0mm 0.0 W/m2
22:01 75.6 °F /  24.2 °C 45.1 °F /  7.3 °C 29.73in /  1006.7hPa SE 4.0mph /  6.4km/h 5.0mph /  8km/h 34% 0.00in /  0mm 0.0 W/m2
22:06 75.6 °F /  24.2 °C 45.1 °F /  7.3 °C 29.74in /  1007hPa East 2.9mph /  4.7km/h 3.0mph /  4.8km/h 34% 0.00in /  0mm 0.0 W/m2
22:11 75.6 °F /  24.2 °C 46.0 °F /  7.8 °C 29.74in /  1007hPa ESE 4.0mph /  6.4km/h 7.0mph /  11.3km/h 35% 0.00in /  0mm 0.0 W/m2
22:16 75.6 °F /  24.2 °C 45.1 °F /  7.3 °C 29.75in /  1007.3hPa ENE 6.0mph /  9.7km/h 7.0mph /  11.3km/h 34% 0.00in /  0mm 0.0 W/m2
22:21 75.6 °F /  24.2 °C 45.1 °F /  7.3 °C 29.75in /  1007.3hPa ESE 2.0mph /  3.2km/h 15.0mph /  24.1km/h 34% 0.00in /  0mm 0.0 W/m2
22:26 75.6 °F /  24.2 °C 46.0 °F /  7.8 °C 29.75in /  1007.3hPa East 4.0mph /  6.4km/h 11.0mph /  17.7km/h 35% 0.00in /  0mm 0.0 W/m2
22:32 75.0 °F /  23.9 °C 48.4 °F /  9.1 °C 29.75in /  1007.3hPa NE 4.0mph /  6.4km/h 11.0mph /  17.7km/h 39% 0.00in /  0mm 0.0 W/m2
22:37 74.7 °F /  23.7 °C 48.7 °F /  9.3 °C 29.75in /  1007.3hPa NE 2.9mph /  4.7km/h 10.0mph /  16.1km/h 40% 0.00in /  0mm 0.0 W/m2
22:42 73.9 °F /  23.3 °C 48.7 °F /  9.3 °C 29.75in /  1007.3hPa ENE 6.0mph /  9.7km/h 11.0mph /  17.7km/h 41% 0.00in /  0mm 0.0 W/m2
22:47 73.2 °F /  22.9 °C 48.7 °F /  9.3 °C 29.75in /  1007.3hPa ENE 4.0mph /  6.4km/h 11.0mph /  17.7km/h 42% 0.00in /  0mm 0.0 W/m2
22:52 72.9 °F /  22.7 °C 49.1 °F /  9.5 °C 29.75in /  1007.3hPa NNE 6.9mph /  11.1km/h 9.0mph /  14.5km/h 43% 0.00in /  0mm 0.0 W/m2
22:57 72.5 °F /  22.5 °C 49.3 °F /  9.6 °C 29.75in /  1007.3hPa Calm   7.0mph /  11.3km/h 44% 0.00in /  0mm 0.0 W/m2
23:02 72.3 °F /  22.4 °C 49.1 °F /  9.5 °C 29.75in /  1007.3hPa East 4.0mph /  6.4km/h 9.0mph /  14.5km/h 44% 0.00in /  0mm 0.0 W/m2
23:07 72.1 °F /  22.3 °C 49.1 °F /  9.5 °C 29.75in /  1007.3hPa Calm   8.0mph /  12.9km/h 44% 0.00in /  0mm 0.0 W/m2
23:13 71.8 °F /  22.1 °C 49.3 °F /  9.6 °C 29.75in /  1007.3hPa North 0.9mph /  1.4km/h 6.0mph /  9.7km/h 45% 0.00in /  0mm 0.0 W/m2
23:18 71.6 °F /  22 °C 49.1 °F /  9.5 °C 29.74in /  1007hPa NE 4.0mph /  6.4km/h 12.0mph /  19.3km/h 45% 0.00in /  0mm 0.0 W/m2
23:23 71.4 °F /  21.9 °C 49.6 °F /  9.8 °C 29.74in /  1007hPa ENE 2.9mph /  4.7km/h 11.0mph /  17.7km/h 46% 0.00in /  0mm 0.0 W/m2
23:28 71.2 °F /  21.8 °C 50.0 °F /  10 °C 29.74in /  1007hPa East 2.0mph /  3.2km/h 7.0mph /  11.3km/h 47% 0.00in /  0mm 0.0 W/m2
23:33 71.1 °F /  21.7 °C 49.8 °F /  9.9 °C 29.73in /  1006.7hPa East 0.9mph /  1.4km/h 6.0mph /  9.7km/h 47% 0.00in /  0mm 0.0 W/m2
23:38 70.9 °F /  21.6 °C 49.6 °F /  9.8 °C 29.73in /  1006.7hPa East 2.0mph /  3.2km/h 5.0mph /  8km/h 47% 0.00in /  0mm 0.0 W/m2
23:43 70.7 °F /  21.5 °C 49.5 °F /  9.7 °C 29.73in /  1006.7hPa NNE 2.9mph /  4.7km/h 7.0mph /  11.3km/h 47% 0.00in /  0mm 0.0 W/m2
23:48 70.5 °F /  21.4 °C 49.3 °F /  9.6 °C 29.73in /  1006.7hPa NE 2.9mph /  4.7km/h 6.0mph /  9.7km/h 47% 0.00in /  0mm 0.0 W/m2
23:53 70.5 °F /  21.4 °C 49.3 °F /  9.6 °C 29.73in /  1006.7hPa ESE 2.9mph /  4.7km/h 7.0mph /  11.3km/h 47% 0.00in /  0mm 0.0 W/m2
23:59 70.3 °F /  21.3 °C 49.1 °F /  9.5 °C 29.73in /  1006.7hPa ENE 2.9mph /  4.7km/h 8.0mph /  12.9km/h 47% 0.00in /  0mm 0.0 W/m2
Olympia, Windhoek, Namibia
Compliments of Weather Underground - 3.25 mb